sensor_id;sensor_type;location;lat;lon;timestamp;pressure;altitude;pressure_sealevel;temperature;humidity
7168;BME280;3625;51.762;14.320;2022-12-26T00:02:00;100184.56;;;8.70;100.00
7168;BME280;3625;51.762;14.320;2022-12-26T00:04:30;100254.03;;;9.16;100.00
7168;BME280;3625;51.762;14.320;2022-12-26T00:07:18;100045.44;;;7.91;100.00
7168;BME280;3625;51.762;14.320;2022-12-26T00:09:51;100252.19;;;9.18;100.00
7168;BME280;3625;51.762;14.320;2022-12-26T00:12:21;100191.34;;;8.82;100.00
7168;BME280;3625;51.762;14.320;2022-12-26T00:14:50;100106.22;;;8.29;100.00
7168;BME280;3625;51.762;14.320;2022-12-26T00:17:20;100144.44;;;8.55;100.00
7168;BME280;3625;51.762;14.320;2022-12-26T00:19:49;100192.13;;;8.87;100.00
7168;BME280;3625;51.762;14.320;2022-12-26T00:22:18;100239.94;;;9.17;100.00
7168;BME280;3625;51.762;14.320;2022-12-26T00:24:47;100206.03;;;8.95;100.00
7168;BME280;3625;51.762;14.320;2022-12-26T00:27:15;100149.56;;;8.61;100.00
7168;BME280;3625;51.762;14.320;2022-12-26T00:29:46;100155.59;;;8.67;100.00
7168;BME280;3625;51.762;14.320;2022-12-26T00:32:19;100243.34;;;9.22;100.00
7168;BME280;3625;51.762;14.320;2022-12-26T00:34:49;100245.94;;;9.23;100.00
7168;BME280;3625;51.762;14.320;2022-12-26T00:37:18;100242.41;;;9.24;100.00
7168;BME280;3625;51.762;14.320;2022-12-26T00:39:49;100141.47;;;8.70;100.00
7168;BME280;3625;51.762;14.320;2022-12-26T00:42:20;100223.94;;;9.24;100.00
7168;BME280;3625;51.762;14.320;2022-12-26T00:44:49;100223.03;;;9.25;100.00
7168;BME280;3625;51.762;14.320;2022-12-26T00:47:19;100158.00;;;8.80;100.00
7168;BME280;3625;51.762;14.320;2022-12-26T00:49:48;100160.59;;;8.81;100.00
7168;BME280;3625;51.762;14.320;2022-12-26T00:52:36;100228.38;;;9.22;100.00
7168;BME280;3625;51.762;14.320;2022-12-26T00:55:06;100236.25;;;9.25;100.00
7168;BME280;3625;51.762;14.320;2022-12-26T00:57:35;100236.06;;;9.33;100.00
7168;BME280;3625;51.762;14.320;2022-12-26T01:00:07;100223.66;;;9.36;100.00
7168;BME280;3625;51.762;14.320;2022-12-26T01:02:37;100077.53;;;8.59;100.00
7168;BME280;3625;51.762;14.320;2022-12-26T01:05:10;100171.50;;;9.07;100.00
7168;BME280;3625;51.762;14.320;2022-12-26T01:07:41;100161.19;;;8.95;100.00
7168;BME280;3625;51.762;14.320;2022-12-26T01:10:30;100209.91;;;9.21;100.00
7168;BME280;3625;51.762;14.320;2022-12-26T01:13:01;100204.63;;;9.21;100.00
7168;BME280;3625;51.762;14.320;2022-12-26T01:15:30;100203.78;;;9.20;100.00
7168;BME280;3625;51.762;14.320;2022-12-26T01:18:01;100201.09;;;9.22;100.00
7168;BME280;3625;51.762;14.320;2022-12-26T01:20:33;100088.06;;;8.60;100.00
7168;BME280;3625;51.762;14.320;2022-12-26T01:23:04;100221.31;;;9.23;100.00
7168;BME280;3625;51.762;14.320;2022-12-26T01:25:33;100206.38;;;9.22;100.00
7168;BME280;3625;51.762;14.320;2022-12-26T01:28:02;100213.41;;;9.23;100.00
7168;BME280;3625;51.762;14.320;2022-12-26T01:30:34;100197.66;;;9.18;100.00
7168;BME280;3625;51.762;14.320;2022-12-26T01:33:07;100206.38;;;9.22;100.00
7168;BME280;3625;51.762;14.320;2022-12-26T01:35:38;100201.13;;;9.20;100.00
7168;BME280;3625;51.762;14.320;2022-12-26T01:38:07;100195.97;;;9.16;100.00
7168;BME280;3625;51.762;14.320;2022-12-26T01:40:36;100185.47;;;9.13;100.00
7168;BME280;3625;51.762;14.320;2022-12-26T01:43:11;100046.47;;;8.30;100.00
7168;BME280;3625;51.762;14.320;2022-12-26T01:45:48;100168.25;;;8.93;100.00
7168;BME280;3625;51.762;14.320;2022-12-26T01:48:24;100184.81;;;9.01;100.00
7168;BME280;3625;51.762;14.320;2022-12-26T01:51:02;100097.03;;;8.52;100.00
7168;BME280;3625;51.762;14.320;2022-12-26T01:53:36;100190.94;;;9.02;100.00
7168;BME280;3625;51.762;14.320;2022-12-26T01:56:12;100085.72;;;8.47;100.00
7168;BME280;3625;51.762;14.320;2022-12-26T01:58:47;100150.84;;;8.85;100.00
7168;BME280;3625;51.762;14.320;2022-12-26T02:01:19;99998.16;;;7.85;100.00
7168;BME280;3625;51.762;14.320;2022-12-26T02:03:53;100169.25;;;8.89;100.00
7168;BME280;3625;51.762;14.320;2022-12-26T02:06:40;100075.63;;;8.21;100.00
7168;BME280;3625;51.762;14.320;2022-12-26T02:09:09;100108.72;;;8.39;100.00
7168;BME280;3625;51.762;14.320;2022-12-26T02:11:43;100132.13;;;8.55;100.00
7168;BME280;3625;51.762;14.320;2022-12-26T02:14:13;100177.31;;;8.82;100.00
7168;BME280;3625;51.762;14.320;2022-12-26T02:16:41;100173.75;;;8.83;100.00
7168;BME280;3625;51.762;14.320;2022-12-26T02:19:28;99957.53;;;7.50;100.00
7168;BME280;3625;51.762;14.320;2022-12-26T02:22:39;100084.13;;;8.37;100.00
7168;BME280;3625;51.762;14.320;2022-12-26T02:29:09;100176.19;;;8.93;100.00
7168;BME280;3625;51.762;14.320;2022-12-26T02:31:50;100074.47;;;8.37;100.00
7168;BME280;3625;51.762;14.320;2022-12-26T02:34:36;99903.22;;;7.45;100.00
7168;BME280;3625;51.762;14.320;2022-12-26T02:37:23;100165.53;;;8.98;100.00
7168;BME280;3625;51.762;14.320;2022-12-26T02:40:13;99946.56;;;7.75;100.00
7168;BME280;3625;51.762;14.320;2022-12-26T02:42:58;99893.50;;;7.51;100.00
7168;BME280;3625;51.762;14.320;2022-12-26T02:45:42;100109.78;;;8.73;100.00
7168;BME280;3625;51.762;14.320;2022-12-26T02:48:42;100153.06;;;9.06;100.00
7168;BME280;3625;51.762;14.320;2022-12-26T02:51:31;100155.41;;;9.18;100.00
7168;BME280;3625;51.762;14.320;2022-12-26T02:54:30;100070.94;;;8.81;100.00
7168;BME280;3625;51.762;14.320;2022-12-26T02:57:22;100104.59;;;9.10;100.00
7168;BME280;3625;51.762;14.320;2022-12-26T03:00:15;100169.91;;;9.40;100.00
7168;BME280;3625;51.762;14.320;2022-12-26T03:03:12;100063.75;;;8.88;100.00
7168;BME280;3625;51.762;14.320;2022-12-26T03:06:08;100156.31;;;9.57;100.00
7168;BME280;3625;51.762;14.320;2022-12-26T03:09:02;100056.47;;;8.99;100.00
7168;BME280;3625;51.762;14.320;2022-12-26T03:11:57;100156.16;;;9.65;100.00
7168;BME280;3625;51.762;14.320;2022-12-26T03:14:53;100170.22;;;9.65;100.00
7168;BME280;3625;51.762;14.320;2022-12-26T03:17:30;100159.75;;;9.61;100.00
7168;BME280;3625;51.762;14.320;2022-12-26T03:20:07;100028.94;;;8.72;100.00
7168;BME280;3625;51.762;14.320;2022-12-26T03:22:46;100128.16;;;9.18;100.00
7168;BME280;3625;51.762;14.320;2022-12-26T03:25:24;100167.50;;;9.30;100.00
7168;BME280;3625;51.762;14.320;2022-12-26T03:28:12;100170.09;;;9.31;100.00
7168;BME280;3625;51.762;14.320;2022-12-26T03:30:45;100144.78;;;9.23;100.00
7168;BME280;3625;51.762;14.320;2022-12-26T03:33:15;100156.78;;;9.36;100.00
7168;BME280;3625;51.762;14.320;2022-12-26T03:36:23;100057.84;;;8.75;100.00
7168;BME280;3625;51.762;14.320;2022-12-26T03:39:10;100085.72;;;8.88;100.00
7168;BME280;3625;51.762;14.320;2022-12-26T03:41:52;100137.81;;;9.19;100.00
7168;BME280;3625;51.762;14.320;2022-12-26T03:44:52;100175.28;;;9.36;100.00
7168;BME280;3625;51.762;14.320;2022-12-26T03:47:49;100120.44;;;9.08;100.00
7168;BME280;3625;51.762;14.320;2022-12-26T03:50:42;100144.50;;;9.35;100.00
7168;BME280;3625;51.762;14.320;2022-12-26T03:53:34;100115.34;;;9.41;100.00
7168;BME280;3625;51.762;14.320;2022-12-26T03:56:34;100155.09;;;9.72;100.00
7168;BME280;3625;51.762;14.320;2022-12-26T03:59:30;100162.06;;;9.76;100.00
7168;BME280;3625;51.762;14.320;2022-12-26T04:02:19;100180.34;;;9.83;100.00
7168;BME280;3625;51.762;14.320;2022-12-26T04:05:10;100096.69;;;9.47;100.00
7168;BME280;3625;51.762;14.320;2022-12-26T04:08:06;100166.91;;;9.94;100.00
7168;BME280;3625;51.762;14.320;2022-12-26T04:11:00;100166.75;;;10.00;100.00
7168;BME280;3625;51.762;14.320;2022-12-26T04:13:55;100173.13;;;9.92;100.00
7168;BME280;3625;51.762;14.320;2022-12-26T04:16:53;100162.75;;;9.84;100.00
7168;BME280;3625;51.762;14.320;2022-12-26T04:19:59;100163.63;;;9.83;100.00
7168;BME280;3625;51.762;14.320;2022-12-26T04:22:41;100006.84;;;8.76;100.00
7168;BME280;3625;51.762;14.320;2022-12-26T04:25:36;100189.28;;;9.78;100.00
7168;BME280;3625;51.762;14.320;2022-12-26T04:28:25;100156.09;;;9.68;100.00
7168;BME280;3625;51.762;14.320;2022-12-26T04:31:20;100140.16;;;9.71;100.00
7168;BME280;3625;51.762;14.320;2022-12-26T04:34:19;100199.41;;;9.96;100.00
7168;BME280;3625;51.762;14.320;2022-12-26T04:37:18;100200.06;;;10.06;100.00
7168;BME280;3625;51.762;14.320;2022-12-26T04:40:12;100169.41;;;9.99;100.00
7168;BME280;3625;51.762;14.320;2022-12-26T04:43:02;100200.69;;;10.18;100.00
7168;BME280;3625;51.762;14.320;2022-12-26T04:46:09;100195.19;;;10.26;100.00
7168;BME280;3625;51.762;14.320;2022-12-26T04:48:44;100151.63;;;10.05;100.00
7168;BME280;3625;51.762;14.320;2022-12-26T04:51:33;100168.13;;;10.15;100.00
7168;BME280;3625;51.762;14.320;2022-12-26T04:54:04;100190.53;;;10.37;100.00
7168;BME280;3625;51.762;14.320;2022-12-26T04:56:33;100125.22;;;10.04;100.00
7168;BME280;3625;51.762;14.320;2022-12-26T04:59:02;100193.00;;;10.43;100.00
7168;BME280;3625;51.762;14.320;2022-12-26T05:01:30;100197.22;;;10.50;100.00
7168;BME280;3625;51.762;14.320;2022-12-26T05:04:19;100200.53;;;10.58;100.00
7168;BME280;3625;51.762;14.320;2022-12-26T05:07:11;100193.53;;;10.56;100.00
7168;BME280;3625;51.762;14.320;2022-12-26T05:10:00;100200.06;;;10.75;100.00
7168;BME280;3625;51.762;14.320;2022-12-26T05:12:30;100129.69;;;10.37;100.00
7168;BME280;3625;51.762;14.320;2022-12-26T05:14:59;100201.41;;;10.90;100.00
7168;BME280;3625;51.762;14.320;2022-12-26T05:17:28;100136.16;;;10.58;100.00
7168;BME280;3625;51.762;14.320;2022-12-26T05:20:15;100202.09;;;10.98;100.00
7168;BME280;3625;51.762;14.320;2022-12-26T05:23:02;100204.66;;;11.01;100.00
7168;BME280;3625;51.762;14.320;2022-12-26T05:26:03;100201.66;;;11.13;100.00
7168;BME280;3625;51.762;14.320;2022-12-26T05:29:05;100203.28;;;11.17;100.00
7168;BME280;3625;51.762;14.320;2022-12-26T05:31:33;100197.09;;;11.18;100.00
7168;BME280;3625;51.762;14.320;2022-12-26T05:34:04;100075.63;;;10.47;100.00
7168;BME280;3625;51.762;14.320;2022-12-26T05:36:38;99980.34;;;9.87;100.00
7168;BME280;3625;51.762;14.320;2022-12-26T05:39:08;100165.69;;;11.06;100.00
7168;BME280;3625;51.762;14.320;2022-12-26T05:41:37;100111.88;;;10.75;100.00
7168;BME280;3625;51.762;14.320;2022-12-26T05:44:07;100226.56;;;11.37;100.00
7168;BME280;3625;51.762;14.320;2022-12-26T05:46:37;100215.25;;;11.32;100.00
7168;BME280;3625;51.762;14.320;2022-12-26T05:49:08;100219.44;;;11.39;100.00
7168;BME280;3625;51.762;14.320;2022-12-26T05:51:38;100002.69;;;10.08;100.00
7168;BME280;3625;51.762;14.320;2022-12-26T05:54:11;100211.38;;;11.42;100.00
7168;BME280;3625;51.762;14.320;2022-12-26T05:56:40;100210.59;;;11.40;100.00
7168;BME280;3625;51.762;14.320;2022-12-26T05:59:15;100154.00;;;11.13;100.00
7168;BME280;3625;51.762;14.320;2022-12-26T06:01:43;100199.00;;;11.43;100.00
7168;BME280;3625;51.762;14.320;2022-12-26T06:04:16;100173.03;;;11.26;100.00
7168;BME280;3625;51.762;14.320;2022-12-26T06:06:47;100191.31;;;11.35;100.00
7168;BME280;3625;51.762;14.320;2022-12-26T06:09:16;100101.50;;;10.69;100.00
7168;BME280;3625;51.762;14.320;2022-12-26T06:11:44;99910.03;;;9.51;100.00
7168;BME280;3625;51.762;14.320;2022-12-26T06:14:15;100160.78;;;10.92;100.00
7168;BME280;3625;51.762;14.320;2022-12-26T06:16:44;100030.09;;;10.04;100.00
7168;BME280;3625;51.762;14.320;2022-12-26T06:19:12;100059.59;;;10.21;100.00
7168;BME280;3625;51.762;14.320;2022-12-26T06:21:41;100073.75;;;10.20;100.00
7168;BME280;3625;51.762;14.320;2022-12-26T06:24:12;100212.22;;;11.15;100.00
7168;BME280;3625;51.762;14.320;2022-12-26T06:26:43;100219.19;;;11.17;100.00
7168;BME280;3625;51.762;14.320;2022-12-26T06:29:21;100222.59;;;11.22;100.00
7168;BME280;3625;51.762;14.320;2022-12-26T06:31:50;100210.16;;;11.24;100.00
7168;BME280;3625;51.762;14.320;2022-12-26T06:34:19;100217.91;;;11.32;100.00
7168;BME280;3625;51.762;14.320;2022-12-26T06:36:51;100218.78;;;11.32;100.00
7168;BME280;3625;51.762;14.320;2022-12-26T06:39:23;100162.50;;;10.93;100.00
7168;BME280;3625;51.762;14.320;2022-12-26T06:41:52;100214.19;;;11.38;100.00
7168;BME280;3625;51.762;14.320;2022-12-26T06:44:22;100178.59;;;11.17;100.00
7168;BME280;3625;51.762;14.320;2022-12-26T06:46:53;100043.34;;;10.36;100.00
7168;BME280;3625;51.762;14.320;2022-12-26T06:49:22;100219.53;;;11.36;100.00
7168;BME280;3625;51.762;14.320;2022-12-26T06:51:58;100062.50;;;10.44;100.00
7168;BME280;3625;51.762;14.320;2022-12-26T06:54:29;100116.97;;;10.82;100.00
7168;BME280;3625;51.762;14.320;2022-12-26T06:56:58;100218.66;;;11.35;100.00
7168;BME280;3625;51.762;14.320;2022-12-26T06:59:28;100114.81;;;10.64;100.00
7168;BME280;3625;51.762;14.320;2022-12-26T07:02:01;100246.88;;;11.37;100.00
7168;BME280;3625;51.762;14.320;2022-12-26T07:04:31;100249.44;;;11.40;100.00
7168;BME280;3625;51.762;14.320;2022-12-26T07:07:02;100249.31;;;11.44;100.00
7168;BME280;3625;51.762;14.320;2022-12-26T07:09:32;100051.78;;;10.18;100.00
7168;BME280;3625;51.762;14.320;2022-12-26T07:12:01;100273.03;;;11.49;100.00
7168;BME280;3625;51.762;14.320;2022-12-26T07:14:29;100244.47;;;11.29;100.00
7168;BME280;3625;51.762;14.320;2022-12-26T07:17:01;100270.50;;;11.44;100.00
7168;BME280;3625;51.762;14.320;2022-12-26T07:19:30;100162.19;;;10.73;100.00
7168;BME280;3625;51.762;14.320;2022-12-26T07:21:59;100117.53;;;10.30;100.00
7168;BME280;3625;51.762;14.320;2022-12-26T07:24:29;100271.63;;;11.05;100.00
7168;BME280;3625;51.762;14.320;2022-12-26T07:26:59;100246.56;;;10.85;100.00
7168;BME280;3625;51.762;14.320;2022-12-26T07:29:28;100218.09;;;10.61;100.00
7168;BME280;3625;51.762;14.320;2022-12-26T07:31:58;100246.75;;;10.78;100.00
7168;BME280;3625;51.762;14.320;2022-12-26T07:34:30;100273.47;;;11.01;100.00
7168;BME280;3625;51.762;14.320;2022-12-26T07:36:59;100280.88;;;11.21;100.00
7168;BME280;3625;51.762;14.320;2022-12-26T07:39:33;100246.53;;;11.18;100.00
7168;BME280;3625;51.762;14.320;2022-12-26T07:42:10;100203.56;;;11.08;100.00
7168;BME280;3625;51.762;14.320;2022-12-26T07:44:39;100256.31;;;11.47;100.00
7168;BME280;3625;51.762;14.320;2022-12-26T07:47:35;100148.38;;;10.94;100.00
7168;BME280;3625;51.762;14.320;2022-12-26T07:50:04;100272.63;;;11.62;100.00
7168;BME280;3625;51.762;14.320;2022-12-26T07:52:35;100275.22;;;11.64;100.00
7168;BME280;3625;51.762;14.320;2022-12-26T07:55:05;100222.44;;;11.27;100.00
7168;BME280;3625;51.762;14.320;2022-12-26T07:57:35;100135.47;;;10.82;100.00
7168;BME280;3625;51.762;14.320;2022-12-26T08:00:16;100284.56;;;11.77;100.00
7168;BME280;3625;51.762;14.320;2022-12-26T08:02:47;100283.53;;;11.83;100.00
7168;BME280;3625;51.762;14.320;2022-12-26T08:05:17;100289.75;;;11.82;100.00
7168;BME280;3625;51.762;14.320;2022-12-26T08:07:47;100178.81;;;11.09;100.00
7168;BME280;3625;51.762;14.320;2022-12-26T08:10:23;100198.59;;;11.27;100.00
7168;BME280;3625;51.762;14.320;2022-12-26T08:12:53;100136.00;;;10.95;100.00
7168;BME280;3625;51.762;14.320;2022-12-26T08:15:24;100227.16;;;11.47;100.00
7168;BME280;3625;51.762;14.320;2022-12-26T08:17:53;100306.88;;;11.99;100.00
7168;BME280;3625;51.762;14.320;2022-12-26T08:20:22;100298.59;;;12.10;100.00
7168;BME280;3625;51.762;14.320;2022-12-26T08:22:50;100265.91;;;12.09;100.00
7168;BME280;3625;51.762;14.320;2022-12-26T08:25:19;100287.00;;;12.40;100.00
7168;BME280;3625;51.762;14.320;2022-12-26T08:27:58;100197.97;;;12.05;100.00
7168;BME280;3625;51.762;14.320;2022-12-26T08:30:29;100282.19;;;12.53;100.00
7168;BME280;3625;51.762;14.320;2022-12-26T08:32:58;100176.16;;;11.97;100.00
7168;BME280;3625;51.762;14.320;2022-12-26T08:35:26;100283.41;;;12.69;100.00
7168;BME280;3625;51.762;14.320;2022-12-26T08:37:56;100275.91;;;12.80;100.00
7168;BME280;3625;51.762;14.320;2022-12-26T08:40:26;100285.31;;;12.91;100.00
7168;BME280;3625;51.762;14.320;2022-12-26T08:43:12;100095.19;;;11.87;100.00
7168;BME280;3625;51.762;14.320;2022-12-26T08:46:04;100282.25;;;13.03;100.00
7168;BME280;3625;51.762;14.320;2022-12-26T08:48:34;100049.75;;;11.71;100.00
7168;BME280;3625;51.762;14.320;2022-12-26T08:51:10;100285.50;;;13.11;100.00
7168;BME280;3625;51.762;14.320;2022-12-26T08:53:41;100288.16;;;13.11;100.00
7168;BME280;3625;51.762;14.320;2022-12-26T08:56:14;100179.06;;;12.42;100.00
7168;BME280;3625;51.762;14.320;2022-12-26T08:58:46;100307.28;;;13.22;100.00
7168;BME280;3625;51.762;14.320;2022-12-26T09:01:21;100288.81;;;13.17;100.00
7168;BME280;3625;51.762;14.320;2022-12-26T09:03:56;100302.75;;;13.24;100.00
7168;BME280;3625;51.762;14.320;2022-12-26T09:06:32;100307.88;;;13.30;100.00
7168;BME280;3625;51.762;14.320;2022-12-26T09:09:04;100238.94;;;13.01;100.00
7168;BME280;3625;51.762;14.320;2022-12-26T09:11:36;100231.75;;;12.79;100.00
7168;BME280;3625;51.762;14.320;2022-12-26T09:14:06;100300.28;;;13.19;100.00
7168;BME280;3625;51.762;14.320;2022-12-26T09:16:39;100245.84;;;12.80;100.00
7168;BME280;3625;51.762;14.320;2022-12-26T09:19:17;100261.38;;;12.92;100.00
7168;BME280;3625;51.762;14.320;2022-12-26T09:21:48;100267.44;;;12.96;100.00
7168;BME280;3625;51.762;14.320;2022-12-26T09:24:39;100180.28;;;12.32;100.00
7168;BME280;3625;51.762;14.320;2022-12-26T09:27:10;100228.94;;;12.58;100.00
7168;BME280;3625;51.762;14.320;2022-12-26T09:29:43;100313.47;;;12.96;100.00
7168;BME280;3625;51.762;14.320;2022-12-26T09:32:12;100241.78;;;12.45;100.00
7168;BME280;3625;51.762;14.320;2022-12-26T09:34:50;100035.34;;;11.26;100.00
7168;BME280;3625;51.762;14.320;2022-12-26T09:37:21;100099.72;;;11.56;100.00
7168;BME280;3625;51.762;14.320;2022-12-26T09:39:50;100302.84;;;12.70;100.00
7168;BME280;3625;51.762;14.320;2022-12-26T09:42:32;100147.31;;;11.87;100.00
7168;BME280;3625;51.762;14.320;2022-12-26T09:45:14;100317.69;;;12.75;100.00
7168;BME280;3625;51.762;14.320;2022-12-26T09:48:08;100199.13;;;11.97;100.00
7168;BME280;3625;51.762;14.320;2022-12-26T09:50:40;100214.13;;;11.98;100.00
7168;BME280;3625;51.762;14.320;2022-12-26T09:53:27;100306.81;;;12.57;100.00
7168;BME280;3625;51.762;14.320;2022-12-26T09:56:02;100229.75;;;12.07;100.00
7168;BME280;3625;51.762;14.320;2022-12-26T09:58:41;100261.91;;;12.24;100.00
7168;BME280;3625;51.762;14.320;2022-12-26T10:01:17;100187.78;;;11.93;100.00
7168;BME280;3625;51.762;14.320;2022-12-26T10:03:49;100165.31;;;11.77;100.00
7168;BME280;3625;51.762;14.320;2022-12-26T10:06:23;100318.97;;;12.64;100.00
7168;BME280;3625;51.762;14.320;2022-12-26T10:09:27;100300.06;;;12.46;100.00
7168;BME280;3625;51.762;14.320;2022-12-26T10:15:18;100329.16;;;12.50;100.00
7168;BME280;3625;51.762;14.320;2022-12-26T10:18:04;100291.78;;;12.29;100.00
7168;BME280;3625;51.762;14.320;2022-12-26T10:20:59;100335.34;;;12.50;100.00
7168;BME280;3625;51.762;14.320;2022-12-26T10:23:36;100289.38;;;12.22;100.00
7168;BME280;3625;51.762;14.320;2022-12-26T10:26:13;100244.06;;;12.01;100.00
7168;BME280;3625;51.762;14.320;2022-12-26T10:28:48;100332.44;;;12.58;100.00
7168;BME280;3625;51.762;14.320;2022-12-26T10:31:25;100154.50;;;11.55;100.00
7168;BME280;3625;51.762;14.320;2022-12-26T10:34:09;100335.63;;;12.69;100.00
7168;BME280;3625;51.762;14.320;2022-12-26T10:36:45;100180.47;;;11.72;100.00
7168;BME280;3625;51.762;14.320;2022-12-26T10:39:22;100166.34;;;11.71;100.00
7168;BME280;3625;51.762;14.320;2022-12-26T10:41:57;100327.91;;;12.61;100.00
7168;BME280;3625;51.762;14.320;2022-12-26T10:44:27;100119.47;;;11.46;100.00
7168;BME280;3625;51.762;14.320;2022-12-26T10:47:14;100305.91;;;12.58;100.00
7168;BME280;3625;51.762;14.320;2022-12-26T10:49:48;100212.81;;;12.11;100.00
7168;BME280;3625;51.762;14.320;2022-12-26T10:52:26;100246.50;;;12.35;100.00
7168;BME280;3625;51.762;14.320;2022-12-26T10:54:59;100320.81;;;12.88;100.00
7168;BME280;3625;51.762;14.320;2022-12-26T10:57:51;100335.16;;;12.82;100.00
7168;BME280;3625;51.762;14.320;2022-12-26T11:00:23;100331.22;;;12.68;100.00
7168;BME280;3625;51.762;14.320;2022-12-26T11:03:04;100306.66;;;12.35;100.00
7168;BME280;3625;51.762;14.320;2022-12-26T11:05:39;100223.31;;;11.86;100.00
7168;BME280;3625;51.762;14.320;2022-12-26T11:08:37;100308.41;;;12.36;100.00
7168;BME280;3625;51.762;14.320;2022-12-26T11:11:20;100311.28;;;12.55;100.00
7168;BME280;3625;51.762;14.320;2022-12-26T11:13:54;100328.72;;;12.90;100.00
7168;BME280;3625;51.762;14.320;2022-12-26T11:16:32;100242.44;;;12.52;100.00
7168;BME280;3625;51.762;14.320;2022-12-26T11:19:03;100309.69;;;12.77;100.00
7168;BME280;3625;51.762;14.320;2022-12-26T11:21:35;100323.56;;;12.85;100.00
7168;BME280;3625;51.762;14.320;2022-12-26T11:24:18;100309.78;;;12.74;100.00
7168;BME280;3625;51.762;14.320;2022-12-26T11:26:47;100156.56;;;11.75;100.00
7168;BME280;3625;51.762;14.320;2022-12-26T11:29:19;100319.03;;;12.62;100.00
7168;BME280;3625;51.762;14.320;2022-12-26T11:32:28;100140.81;;;11.41;100.00
7168;BME280;3625;51.762;14.320;2022-12-26T11:34:57;100349.03;;;12.64;100.00
7168;BME280;3625;51.762;14.320;2022-12-26T11:37:36;100333.13;;;12.36;100.00
7168;BME280;3625;51.762;14.320;2022-12-26T11:40:16;100337.56;;;12.08;100.00
7168;BME280;3625;51.762;14.320;2022-12-26T11:42:50;100315.13;;;11.90;100.00
7168;BME280;3625;51.762;14.320;2022-12-26T11:45:27;100246.69;;;11.43;100.00
7168;BME280;3625;51.762;14.320;2022-12-26T11:48:24;100226.09;;;11.23;100.00
7168;BME280;3625;51.762;14.320;2022-12-26T11:50:54;100337.47;;;11.82;100.00
7168;BME280;3625;51.762;14.320;2022-12-26T11:53:24;100331.56;;;11.70;100.00
7168;BME280;3625;51.762;14.320;2022-12-26T11:55:59;100351.25;;;11.62;100.00
7168;BME280;3625;51.762;14.320;2022-12-26T11:58:33;100228.03;;;10.85;100.00
7168;BME280;3625;51.762;14.320;2022-12-26T12:01:14;100309.38;;;11.11;100.00
7168;BME280;3625;51.762;14.320;2022-12-26T12:03:46;100232.97;;;10.65;100.00
7168;BME280;3625;51.762;14.320;2022-12-26T12:06:52;100331.44;;;11.12;100.00
7168;BME280;3625;51.762;14.320;2022-12-26T12:09:41;100327.34;;;10.98;100.00
7168;BME280;3625;51.762;14.320;2022-12-26T12:12:20;100325.75;;;10.93;100.00
7168;BME280;3625;51.762;14.320;2022-12-26T12:14:59;100318.88;;;10.86;100.00
7168;BME280;3625;51.762;14.320;2022-12-26T12:17:38;100169.56;;;9.93;100.00
7168;BME280;3625;51.762;14.320;2022-12-26T12:20:26;100337.63;;;10.77;100.00
7168;BME280;3625;51.762;14.320;2022-12-26T12:23:33;100318.28;;;10.75;100.00
7168;BME280;3625;51.762;14.320;2022-12-26T12:26:15;100210.75;;;10.01;100.00
7168;BME280;3625;51.762;14.320;2022-12-26T12:29:12;100266.34;;;10.37;100.00
7168;BME280;3625;51.762;14.320;2022-12-26T12:32:01;100319.53;;;10.60;100.00
7168;BME280;3625;51.762;14.320;2022-12-26T12:35:12;100277.84;;;10.34;100.00
7168;BME280;3625;51.762;14.320;2022-12-26T12:40:58;100309.03;;;10.55;100.00
7168;BME280;3625;51.762;14.320;2022-12-26T12:43:40;100195.19;;;9.89;100.00
7168;BME280;3625;51.762;14.320;2022-12-26T12:46:21;100277.94;;;10.30;100.00
7168;BME280;3625;51.762;14.320;2022-12-26T12:49:16;100335.50;;;10.55;100.00
7168;BME280;3625;51.762;14.320;2022-12-26T12:51:57;100324.84;;;10.58;100.00
7168;BME280;3625;51.762;14.320;2022-12-26T12:58:03;100329.09;;;10.66;100.00
7168;BME280;3625;51.762;14.320;2022-12-26T13:00:41;100212.75;;;9.92;100.00
7168;BME280;3625;51.762;14.320;2022-12-26T13:03:24;100105.00;;;9.30;100.00
7168;BME280;3625;51.762;14.320;2022-12-26T13:06:04;100282.31;;;10.31;100.00
7168;BME280;3625;51.762;14.320;2022-12-26T13:08:40;100323.03;;;10.61;100.00
7168;BME280;3625;51.762;14.320;2022-12-26T13:11:21;100301.28;;;10.49;100.00
7168;BME280;3625;51.762;14.320;2022-12-26T13:13:55;100129.97;;;9.54;100.00
7168;BME280;3625;51.762;14.320;2022-12-26T13:16:34;100254.22;;;10.28;100.00
7168;BME280;3625;51.762;14.320;2022-12-26T13:19:18;100308.13;;;10.56;100.00
7168;BME280;3625;51.762;14.320;2022-12-26T13:21:49;100222.84;;;10.11;100.00
7168;BME280;3625;51.762;14.320;2022-12-26T13:24:29;100315.19;;;10.56;100.00
7168;BME280;3625;51.762;14.320;2022-12-26T13:27:04;100068.34;;;9.18;100.00
7168;BME280;3625;51.762;14.320;2022-12-26T13:29:44;100244.66;;;10.21;100.00
7168;BME280;3625;51.762;14.320;2022-12-26T13:32:19;100335.28;;;10.65;100.00
7168;BME280;3625;51.762;14.320;2022-12-26T13:34:51;100345.84;;;10.65;100.00
7168;BME280;3625;51.762;14.320;2022-12-26T13:37:55;100347.59;;;10.66;100.00
7168;BME280;3625;51.762;14.320;2022-12-26T13:40:29;100135.41;;;9.48;100.00
7168;BME280;3625;51.762;14.320;2022-12-26T13:43:06;100068.47;;;9.12;100.00
7168;BME280;3625;51.762;14.320;2022-12-26T13:45:55;100180.59;;;9.73;100.00
7168;BME280;3625;51.762;14.320;2022-12-26T13:48:56;100331.00;;;10.59;100.00
7168;BME280;3625;51.762;14.320;2022-12-26T13:51:56;100342.53;;;10.56;100.00
7168;BME280;3625;51.762;14.320;2022-12-26T13:54:27;100331.19;;;10.51;100.00
7168;BME280;3625;51.762;14.320;2022-12-26T13:57:36;100333.16;;;10.43;100.00
7168;BME280;3625;51.762;14.320;2022-12-26T14:00:16;100265.44;;;9.98;100.00
7168;BME280;3625;51.762;14.320;2022-12-26T14:03:19;100341.16;;;10.40;100.00
7168;BME280;3625;51.762;14.320;2022-12-26T14:06:35;100336.84;;;10.38;100.00